Time;durP1;ratioP1;P1;durP2;ratioP2;P2;SDS_P1;SDS_P2;PMS_P1;PMS_P2;Temp;Humidity;BMP_temperature;BMP_pressure;BME280_temperature;BME280_humidity;BME280_pressure;Samples;Min_cycle;Max_cycle;Signal;HPM_P1;HPM_P2
2022/07/12 00:02:27;;;;;;;1.48;0.50;;;16.10;65.20;;;14.70;53.90;100476.78;10424313;27;96874;-89
2022/07/12 00:07:30;;;;;;;1.77;0.50;;;16.10;65.70;;;14.81;53.97;100488.81;10403662;28;97297;-90
2022/07/12 00:12:33;;;;;;;0.90;0.43;;;16.20;65.90;;;14.85;53.88;100482.06;10437860;27;96670;-91
2022/07/12 00:17:38;;;;;;;1.48;0.50;;;16.20;66.00;;;14.79;53.95;100474.81;10424350;27;96612;-91
2022/07/12 00:22:41;;;;;;;1.77;0.60;;;16.20;66.10;;;14.82;54.00;100485.16;10464691;27;96617;-89
2022/07/12 00:27:44;;;;;;;1.30;0.50;;;16.20;66.00;;;14.78;54.24;100475.00;10451438;27;96479;-90
2022/07/12 00:32:47;;;;;;;1.95;0.45;;;16.20;66.00;;;14.79;54.60;100482.84;10435881;27;97368;-90
2022/07/12 00:37:51;;;;;;;1.05;0.40;;;16.20;66.20;;;14.81;54.82;100493.34;10426097;27;98919;-90
2022/07/12 00:42:54;;;;;;;0.68;0.30;;;16.30;66.20;;;14.78;54.70;100497.22;10396825;27;97099;-91
2022/07/12 00:47:57;;;;;;;1.13;0.50;;;16.30;66.50;;;14.68;54.78;100494.00;10423391;27;97622;-91
2022/07/12 00:53:03;;;;;;;0.88;0.50;;;16.20;66.50;;;14.54;55.00;100490.34;10406271;27;96671;-90
2022/07/12 00:58:06;;;;;;;1.38;0.55;;;16.00;66.70;;;14.51;55.67;100497.91;10439123;27;96976;-88
2022/07/12 01:03:10;;;;;;;1.17;0.45;;;16.00;67.30;;;14.57;55.71;100500.66;10413780;27;96554;-89
2022/07/12 01:08:14;;;;;;;0.90;0.40;;;16.00;67.60;;;14.67;55.49;100509.25;10422608;27;96753;-90
2022/07/12 01:13:18;;;;;;;2.05;0.52;;;16.10;67.80;;;14.79;55.33;100504.25;10423196;27;96666;-89
2022/07/12 01:18:22;;;;;;;1.70;0.40;;;16.20;67.50;;;14.90;55.18;100505.59;10422764;27;98331;-90
2022/07/12 01:23:25;;;;;;;0.95;0.30;;;16.30;67.40;;;14.97;55.03;100495.78;10425682;27;97284;-91
2022/07/12 01:28:28;;;;;;;0.65;0.40;;;16.30;67.10;;;15.04;54.72;100493.19;10412663;27;97148;-90
2022/07/12 01:33:33;;;;;;;1.63;0.45;;;16.50;67.00;;;15.02;54.68;100490.72;10414026;27;98267;-91
2022/07/12 01:38:37;;;;;;;2.67;0.52;;;16.50;66.90;;;15.08;54.51;100486.44;10416262;27;96596;-90
2022/07/12 01:43:40;;;;;;;1.23;0.45;;;16.50;66.80;;;15.08;54.43;100484.59;10438646;27;96987;-90
2022/07/12 01:48:43;;;;;;;1.10;0.52;;;16.50;66.70;;;15.10;54.68;100479.03;10420034;27;96737;-90
2022/07/12 01:53:46;;;;;;;1.38;0.60;;;16.50;66.70;;;15.11;54.66;100486.88;10423436;27;96621;-90
2022/07/12 01:58:49;;;;;;;2.58;0.65;;;16.60;66.80;;;15.04;54.76;100485.97;10437805;27;97514;-91
2022/07/12 02:03:53;;;;;;;1.00;0.30;;;16.50;66.80;;;14.94;54.84;100488.16;10419044;27;96556;-90
2022/07/12 02:08:56;;;;;;;2.17;0.47;;;16.40;66.90;;;14.80;55.25;100491.69;10441409;27;96501;-91
2022/07/12 02:13:59;;;;;;;1.35;0.60;;;16.30;67.40;;;14.65;55.49;100495.22;10438125;27;97166;-90
2022/07/12 02:19:02;;;;;;;3.25;0.60;;;16.10;67.70;;;14.47;56.09;100484.09;10408242;27;97720;-90
2022/07/12 02:24:07;;;;;;;0.82;0.40;;;16.00;68.10;;;14.36;56.47;100482.69;10438043;27;99052;-90
2022/07/12 02:29:11;;;;;;;0.85;0.40;;;15.90;68.70;;;14.33;56.87;100477.69;10435809;27;96633;-88
2022/07/12 02:34:14;;;;;;;1.67;0.43;;;15.80;69.20;;;14.37;56.93;100487.03;10436841;27;97181;-89
2022/07/12 02:39:17;;;;;;;0.60;0.30;;;15.80;69.30;;;14.42;57.38;100478.44;10422971;27;96427;-90
2022/07/12 02:44:19;;;;;;;2.83;0.60;;;15.80;69.20;;;14.36;57.13;100489.88;10436182;27;97758;-90
2022/07/12 02:49:23;;;;;;;1.50;0.60;;;15.90;69.20;;;14.32;57.44;100488.59;10420551;27;97117;-91
2022/07/12 02:54:26;;;;;;;1.93;0.47;;;15.80;69.20;;;14.27;57.26;100497.16;10437882;27;96649;-91
2022/07/12 02:59:28;;;;;;;3.60;0.70;;;15.70;69.50;;;14.12;57.85;100493.66;10410586;27;97964;-89
2022/07/12 03:04:32;;;;;;;2.20;0.50;;;15.60;69.90;;;14.10;58.44;100499.19;10410634;27;96673;-89
2022/07/12 03:09:35;;;;;;;0.97;0.40;;;15.50;70.70;;;14.06;58.83;100508.59;10381381;28;97312;-88
2022/07/12 03:14:38;;;;;;;2.72;0.50;;;15.50;71.40;;;14.10;58.99;100511.72;10404984;27;96654;-89
2022/07/12 03:19:41;;;;;;;3.17;0.57;;;15.50;71.80;;;14.18;58.50;100514.31;10400009;27;96722;-88
2022/07/12 03:24:44;;;;;;;1.67;0.50;;;15.50;71.80;;;14.24;58.68;100513.56;10422150;27;96798;-88
2022/07/12 03:29:47;;;;;;;2.92;0.47;;;15.60;71.70;;;14.26;58.92;100516.06;10419443;27;96744;-91
2022/07/12 03:34:50;;;;;;;2.73;1.00;;;15.60;71.70;;;14.20;58.91;100517.63;10432825;27;97065;-90
2022/07/12 03:39:53;;;;;;;2.63;0.60;;;15.60;72.00;;;14.26;58.87;100511.53;10425487;27;96661;-94
2022/07/12 03:44:56;;;;;;;1.73;0.50;;;15.60;72.10;;;14.33;58.80;100500.94;10426267;27;97486;-94
2022/07/12 03:49:59;;;;;;;1.20;0.60;;;15.70;71.90;;;14.44;58.45;100497.78;10431399;27;96893;-95
2022/07/12 03:55:05;;;;;;;2.60;0.57;;;15.80;71.90;;;14.54;58.21;100511.75;10452083;27;96617;-95
2022/07/12 04:00:14;;;;;;;3.40;0.50;;;15.90;71.70;;;14.67;58.36;100519.09;10476793;27;95634;-96
2022/07/12 04:05:17;;;;;;;2.97;0.60;;;16.00;71.50;;;14.73;58.76;100511.16;10441198;27;95643;-96
2022/07/12 04:10:20;;;;;;;0.82;0.40;;;16.20;71.60;;;14.82;58.16;100511.06;10454154;27;96570;-94
2022/07/12 04:15:23;;;;;;;1.88;0.60;;;16.20;71.40;;;14.90;57.97;100516.31;10445259;27;96657;-91
2022/07/12 04:20:26;;;;;;;3.05;0.50;;;16.20;71.40;;;14.99;57.86;100507.13;10450152;27;96660;-94
2022/07/12 04:25:29;;;;;;;2.47;0.50;;;16.30;71.70;;;15.22;58.07;100517.69;10404824;27;96456;-92
2022/07/12 04:30:33;;;;;;;2.30;0.55;;;16.40;72.00;;;15.53;57.29;100522.72;10432136;27;97998;-91
2022/07/12 04:35:37;;;;;;;0.82;0.40;;;16.70;71.50;;;15.73;56.67;100518.41;10429518;27;96370;-95
2022/07/12 04:40:40;;;;;;;2.10;0.77;;;16.90;70.90;;;15.94;56.00;100514.00;10433062;27;96725;-95
2022/07/12 04:45:44;;;;;;;3.08;0.60;;;17.10;70.30;;;16.15;55.28;100519.34;10425541;27;96840;-94
2022/07/12 04:50:47;;;;;;;2.15;0.60;;;17.30;69.80;;;16.33;55.39;100516.13;10439091;27;96621;-94
2022/07/12 04:55:56;;;;;;;1.98;0.77;;;17.50;69.70;;;16.56;54.92;100521.22;10433254;27;96554;-96
2022/07/12 05:00:59;;;;;;;5.93;0.73;;;17.70;69.30;;;16.74;54.39;100518.84;10431571;27;97124;-93
2022/07/12 05:06:03;;;;;;;3.95;0.40;;;17.90;68.80;;;16.91;53.65;100515.78;10430489;27;96652;-95
2022/07/12 05:11:06;;;;;;;1.55;0.35;;;18.10;68.10;;;17.08;53.46;100514.41;10431844;27;96692;-91
2022/07/12 05:16:09;;;;;;;0.90;0.40;;;18.30;67.90;;;17.23;52.97;100512.38;10437959;27;97705;-88
2022/07/12 05:21:12;;;;;;;0.43;0.40;;;18.40;67.40;;;17.35;52.30;100505.38;10422252;27;96695;-87
2022/07/12 05:26:15;;;;;;;1.85;0.40;;;18.50;66.90;;;17.55;52.25;100524.19;10424011;27;96546;-87
2022/07/12 05:31:18;;;;;;;2.53;0.43;;;18.70;66.90;;;17.70;52.33;100502.53;10438196;27;97153;-87
2022/07/12 05:36:22;;;;;;;0.63;0.40;;;18.90;66.70;;;17.95;51.53;100509.97;10403352;27;96730;-87
2022/07/12 05:41:25;;;;;;;1.45;0.50;;;19.20;66.10;;;18.13;50.47;100518.22;10406572;27;98294;-87
2022/07/12 05:46:28;;;;;;;2.28;0.50;;;19.30;65.20;;;18.37;50.21;100520.25;10429610;27;98103;-86
2022/07/12 05:56:52;;;;;;;1.77;0.40;;;19.80;64.10;;;18.99;48.57;100513.38;10445145;27;96507;-87
2022/07/12 06:01:55;;;;;;;1.95;0.40;;;20.10;63.40;;;19.25;47.84;100511.56;10456552;27;97736;-88
2022/07/12 06:06:58;;;;;;;1.80;0.40;;;20.40;62.70;;;19.32;47.07;100512.38;10439523;27;97029;-88
2022/07/12 06:12:02;;;;;;;0.85;0.30;;;20.50;61.70;;;19.40;46.86;100493.25;10421086;27;96715;-87
2022/07/12 06:17:07;;;;;;;1.20;0.38;;;20.60;61.50;;;19.54;46.50;100499.34;10439639;27;97515;-88
2022/07/12 06:22:10;;;;;;;2.17;0.40;;;20.70;61.40;;;19.67;45.76;100498.44;10425437;27;99173;-88
2022/07/12 06:27:13;;;;;;;1.50;0.40;;;20.80;60.50;;;19.64;45.79;100498.91;10420897;27;96847;-87
2022/07/12 06:32:17;;;;;;;3.22;0.45;;;20.80;60.30;;;19.62;45.82;100501.00;10423068;27;96465;-89
2022/07/12 06:37:20;;;;;;;2.08;0.60;;;20.70;60.30;;;19.70;45.34;100503.41;10415709;27;96776;-86
2022/07/12 06:42:23;;;;;;;3.05;0.60;;;20.80;60.10;;;19.72;44.55;100506.72;10437195;27;96550;-89
2022/07/12 06:47:26;;;;;;;3.55;0.50;;;20.80;59.20;;;19.63;44.71;100497.25;10418518;27;96398;-86
2022/07/12 06:52:30;;;;;;;1.50;0.40;;;20.80;59.10;;;19.53;44.59;100506.63;10435822;27;96640;-85
2022/07/12 06:57:34;;;;;;;2.47;0.50;;;20.70;59.20;;;19.42;44.51;100507.31;10421434;27;96661;-88
2022/07/12 07:02:40;;;;;;;3.33;0.57;;;20.60;59.30;;;19.52;45.11;100504.97;10422620;27;96910;-87
2022/07/12 07:07:44;;;;;;;2.15;0.40;;;20.60;59.70;;;19.78;44.42;100495.03;10395153;28;96569;-86
2022/07/12 07:12:47;;;;;;;0.70;0.40;;;20.80;59.10;;;19.98;43.93;100506.50;10398880;27;96446;-86
2022/07/12 07:17:50;;;;;;;1.48;0.50;;;21.10;58.70;;;19.97;43.49;100504.00;10440788;27;96963;-88
2022/07/12 07:22:53;;;;;;;3.38;0.60;;;21.10;58.20;;;19.96;43.39;100507.75;10428263;27;96608;-86
2022/07/12 07:27:57;;;;;;;2.13;0.60;;;21.10;58.10;;;20.21;43.68;100510.41;10428077;27;96724;-87
2022/07/12 07:33:00;;;;;;;1.27;0.60;;;21.30;58.20;;;20.47;42.98;100507.47;10442808;27;97189;-88
2022/07/12 07:38:04;;;;;;;1.60;0.50;;;21.60;57.70;;;20.67;42.69;100504.50;10440495;27;96686;-87
2022/07/12 07:43:07;;;;;;;1.42;0.60;;;21.80;57.30;;;20.89;41.72;100504.88;10424880;27;96802;-86
2022/07/12 07:48:09;;;;;;;0.88;0.45;;;21.90;56.80;;;21.06;41.90;100491.56;10411443;27;98074;-88
2022/07/12 07:53:26;;;;;;;1.00;0.50;;;22.10;56.60;;;21.24;41.31;100488.78;10426281;27;96841;-86
2022/07/12 07:58:29;;;;;;;1.95;0.70;;;22.30;56.30;;;21.38;41.01;100486.72;10441693;27;98370;-87
2022/07/12 08:03:32;;;;;;;2.00;0.57;;;22.50;55.60;;;21.49;39.87;100488.63;10423479;27;96786;-85
2022/07/12 08:08:35;;;;;;;0.85;0.40;;;22.60;55.30;;;21.63;39.80;100495.47;10443927;27;97793;-87
2022/07/12 08:13:59;;;;;;;5.05;0.70;;;22.80;55.10;;;21.77;40.42;100501.50;10436778;27;96711;-85
2022/07/12 08:19:03;;;;;;;4.43;0.52;;;22.90;55.00;;;21.85;39.55;100489.50;10441054;27;96676;-87
2022/07/12 08:24:06;;;;;;;0.82;0.43;;;22.90;54.20;;;21.94;39.01;100490.78;10421543;27;98716;-85
2022/07/12 08:29:09;;;;;;;2.45;0.70;;;23.00;54.00;;;21.95;38.66;100488.88;10426495;27;96603;-87
2022/07/12 08:34:12;;;;;;;2.22;0.52;;;23.10;53.50;;;22.04;39.25;100487.47;10457379;27;96666;-87
2022/07/12 08:39:15;;;;;;;3.00;0.90;;;23.10;54.20;;;22.21;38.79;100487.63;10459206;27;97569;-86
2022/07/12 08:44:18;;;;;;;1.25;0.50;;;23.30;53.80;;;22.37;38.36;100484.16;10456847;27;98784;-87
2022/07/12 08:49:21;;;;;;;1.52;0.30;;;23.40;53.20;;;22.42;37.52;100482.38;10441179;27;98643;-88
2022/07/12 08:54:24;;;;;;;2.88;0.45;;;23.50;52.40;;;22.50;37.88;100486.63;10399489;27;96582;-86
2022/07/12 08:59:27;;;;;;;1.17;0.40;;;23.60;52.60;;;22.58;37.60;100480.00;10406471;27;96673;-86
2022/07/12 09:04:30;;;;;;;3.17;0.50;;;23.60;52.50;;;22.72;37.37;100473.25;10442331;27;97340;-85
2022/07/12 09:09:38;;;;;;;1.33;0.88;;;23.70;52.40;;;22.82;37.01;100478.88;10420486;27;98322;-88
2022/07/12 09:14:41;;;;;;;2.22;0.47;;;23.80;52.00;;;22.94;37.30;100476.13;10418712;27;96555;-83
2022/07/12 09:19:58;;;;;;;0.43;0.30;;;23.90;52.40;;;23.02;36.09;100462.19;10439022;27;96616;-85
2022/07/12 09:25:18;;;;;;;1.17;0.50;;;24.10;50.70;;;23.11;36.57;100477.00;10441970;27;96533;-87
2022/07/12 09:30:23;;;;;;;;;;;24.10;51.10;;;23.21;36.23;100466.34;10424104;27;96811;-85
2022/07/12 09:40:48;;;;;;;1.55;0.43;;;24.40;51.60;;;23.40;36.17;100449.84;10440516;27;98779;-86
2022/07/12 09:45:51;;;;;;;2.35;0.70;;;24.50;51.00;;;23.48;35.72;100460.28;10424861;27;96544;-87
2022/07/12 09:50:58;;;;;;;4.38;0.50;;;24.60;50.80;;;23.47;36.10;100458.63;10422751;27;96933;-85
2022/07/12 09:56:05;;;;;;;0.93;0.40;;;24.60;51.10;;;23.42;35.89;100453.13;10423832;27;96491;-86
2022/07/12 10:01:09;;;;;;;2.78;0.75;;;24.50;50.90;;;23.26;36.12;100452.03;10409089;27;96617;-85
2022/07/12 10:06:37;;;;;;;2.72;0.60;;;24.40;51.00;;;22.98;36.23;100452.91;10384510;28;96582;-85
2022/07/12 10:11:41;;;;;;;2.92;0.80;;;24.20;50.90;;;22.89;36.97;100452.47;10394450;28;96676;-84
2022/07/12 10:17:07;;;;;;;1.60;0.60;;;24.00;51.40;;;23.01;36.61;100432.63;10429885;27;96602;-87
2022/07/12 10:22:20;;;;;;;1.73;0.57;;;24.10;51.50;;;22.95;36.58;100446.06;10400432;28;97718;-85
2022/07/12 10:27:30;;;;;;;0.85;0.20;;;24.10;51.60;;;22.83;34.56;100436.34;10382341;27;98674;-85
2022/07/12 10:32:35;;;;;;;;;;;23.90;49.40;;;22.89;36.31;100438.09;10396889;28;96599;-85
2022/07/12 10:37:38;;;;;;;1.77;0.75;;;23.90;51.10;;;22.93;36.27;100441.97;10398339;28;96636;-84
2022/07/12 10:43:03;;;;;;;1.35;0.60;;;24.00;51.10;;;22.98;35.16;100427.72;10436077;27;96797;-85
2022/07/12 10:48:12;;;;;;;7.45;0.57;;;24.10;49.70;;;22.90;35.45;100439.75;10442419;27;96755;-86
2022/07/12 10:53:45;;;;;;;2.45;0.45;;;24.00;50.20;;;22.83;35.09;100448.00;10415179;27;96952;-86
2022/07/12 10:58:56;;;;;;;1.70;0.38;;;23.90;49.60;;;23.02;35.38;100448.63;10430014;27;96891;-87
2022/07/12 11:04:10;;;;;;;1.77;0.28;;;24.00;50.20;;;23.30;35.54;100436.94;10429026;27;96658;-85
2022/07/12 11:09:17;;;;;;;1.63;0.40;;;24.30;50.40;;;23.59;34.87;100431.41;10446586;27;96677;-90
2022/07/12 11:14:32;;;;;;;1.33;0.30;;;24.60;49.50;;;24.16;34.30;100429.25;10430037;27;96708;-86
2022/07/12 11:19:35;;;;;;;0.68;0.20;;;25.10;49.30;;;24.16;33.68;100423.84;10444355;27;96546;-85
2022/07/12 11:24:38;;;;;;;3.45;0.50;;;25.30;48.40;;;23.80;33.51;100424.44;10425407;27;96814;-85
2022/07/12 11:29:57;;;;;;;2.97;0.40;;;24.90;48.30;;;23.53;33.10;100406.09;10420293;27;96599;-86
2022/07/12 11:35:00;;;;;;;1.20;0.30;;;24.60;47.50;;;23.93;32.38;100407.78;10442958;27;96623;-86
2022/07/12 11:40:04;;;;;;;0.50;0.38;;;24.90;47.30;;;24.35;32.20;100391.81;10427631;27;96608;-86
2022/07/12 11:45:08;;;;;;;0.50;0.30;;;25.30;46.90;;;24.62;31.22;100410.00;10409657;28;96927;-86
2022/07/12 11:50:10;;;;;;;4.57;0.40;;;25.70;46.30;;;24.77;30.55;100402.00;10429999;27;98819;-86
2022/07/12 11:55:13;;;;;;;2.55;0.40;;;25.90;45.50;;;24.84;30.40;100405.34;10462683;27;96621;-86
2022/07/12 12:00:23;;;;;;;1.60;0.57;;;25.90;45.30;;;24.63;30.27;100404.31;10441856;27;98632;-86
2022/07/12 12:05:26;;;;;;;0.88;0.30;;;25.80;45.00;;;24.66;31.04;100384.81;10424510;27;96741;-87
2022/07/12 12:10:29;;;;;;;1.65;0.40;;;25.70;45.90;;;24.68;30.04;100389.97;10402094;28;96632;-87
2022/07/12 12:15:33;;;;;;;1.33;0.30;;;25.80;44.90;;;24.32;28.77;100392.28;10417813;28;96668;-88
2022/07/12 12:20:43;;;;;;;1.02;0.30;;;25.50;43.30;;;24.07;29.47;100398.22;10412008;27;96673;-86
2022/07/12 12:25:46;;;;;;;2.35;0.30;;;25.20;44.00;;;23.94;30.12;100387.72;10426945;27;96550;-86
2022/07/12 12:30:59;;;;;;;4.15;0.30;;;25.00;44.60;;;24.06;30.68;100383.00;10427987;27;96566;-87
2022/07/12 12:36:27;;;;;;;3.40;0.20;;;25.10;45.00;;;24.53;29.54;100368.91;10419638;27;96773;-87
2022/07/12 12:41:41;;;;;;;0.47;0.20;;;25.50;44.00;;;25.03;28.26;100365.03;10403179;27;97604;-86
2022/07/12 12:46:49;;;;;;;1.55;0.30;;;26.00;42.80;;;25.41;27.93;100371.31;10446500;27;97568;-84
2022/07/12 12:52:00;;;;;;;1.90;0.30;;;26.30;42.60;;;25.77;26.76;100362.31;10438500;27;96779;-86
2022/07/12 12:57:05;;;;;;;0.32;0.10;;;26.70;41.70;;;26.08;26.40;100341.47;10427909;27;96522;-89
2022/07/12 13:02:08;;;;;;;1.00;0.22;;;27.00;41.30;;;26.33;25.19;100348.94;10428033;27;98390;-87
2022/07/12 13:07:11;;;;;;;3.25;0.35;;;27.30;40.00;;;26.61;24.79;100344.09;10408477;27;97003;-88
2022/07/12 13:12:15;;;;;;;1.02;0.30;;;27.50;39.90;;;26.82;23.82;100344.94;10433931;27;97264;-88
2022/07/12 13:17:19;;;;;;;1.63;0.17;;;27.70;38.80;;;26.37;24.30;100339.13;10441547;27;96622;-88
2022/07/12 13:22:21;;;;;;;1.85;0.30;;;27.40;39.00;;;26.33;24.19;100335.31;10458935;27;99028;-85
2022/07/12 13:27:26;;;;;;;2.30;0.20;;;27.40;39.30;;;26.65;24.37;100342.47;10415123;27;96703;-84
2022/07/12 13:32:29;;;;;;;1.42;0.10;;;27.60;39.00;;;27.01;24.18;100342.50;10440756;27;96581;-88
2022/07/12 13:37:33;;;;;;;0.55;0.25;;;28.00;39.00;;;27.29;24.27;100347.41;10434332;27;96823;-85
2022/07/12 13:42:44;;;;;;;0.43;0.10;;;28.40;38.90;;;27.46;23.97;100345.19;10453654;27;96693;-87
2022/07/12 13:47:50;;;;;;;0.73;0.10;;;28.70;38.30;;;27.28;23.26;100340.31;10422729;27;97630;-87
2022/07/12 13:52:53;;;;;;;0.73;0.20;;;28.70;37.90;;;27.19;23.95;100347.44;10423774;27;96979;-88
2022/07/12 13:57:57;;;;;;;0.90;0.28;;;28.50;38.60;;;27.05;23.93;100338.09;10434893;27;96688;-86
2022/07/12 14:03:00;;;;;;;2.20;0.35;;;28.30;38.60;;;27.25;24.10;100335.41;10424186;27;97188;-88
2022/07/12 14:08:05;;;;;;;1.75;0.20;;;28.40;39.00;;;27.51;24.20;100335.34;10396059;27;97624;-86
2022/07/12 14:13:08;;;;;;;4.55;0.30;;;28.70;38.80;;;27.69;24.05;100335.59;10406657;27;98720;-86
2022/07/12 14:18:11;;;;;;;1.75;0.20;;;29.00;38.90;;;27.86;23.87;100338.00;10403807;27;98660;-87
2022/07/12 14:23:14;;;;;;;1.60;0.25;;;29.20;38.80;;;28.13;24.29;100339.50;10438525;27;98495;-87
2022/07/12 14:28:17;;;;;;;27.67;0.73;;;29.40;39.00;;;28.28;23.44;100334.78;10433392;27;98595;-90
2022/07/12 14:33:20;;;;;;;100.78;7.35;;;29.60;38.30;;;28.35;23.07;100320.03;10416783;27;97586;-88
2022/07/12 14:38:23;;;;;;;83.15;3.13;;;29.70;38.00;;;28.44;23.40;100334.75;10417252;27;96994;-86
2022/07/12 14:43:26;;;;;;;124.65;6.85;;;29.80;38.10;;;28.45;22.67;100331.72;10431510;27;96950;-88
2022/07/12 14:48:29;;;;;;;35.08;1.60;;;29.80;37.40;;;28.23;22.55;100331.28;10437543;27;96499;-88
2022/07/12 14:53:33;;;;;;;0.55;0.30;;;29.60;37.20;;;28.09;22.20;100330.28;10401883;27;96800;-86
2022/07/12 14:58:36;;;;;;;2.15;0.15;;;29.60;37.10;;;28.08;22.94;100331.38;10454190;27;96540;-90
2022/07/12 15:03:39;;;;;;;0.93;0.20;;;29.50;37.20;;;27.92;22.33;100319.69;10420382;27;98698;-89
2022/07/12 15:08:42;;;;;;;2.28;0.40;;;29.30;36.50;;;27.80;22.60;100322.75;10421790;27;96604;-87
2022/07/12 15:13:46;;;;;;;0.30;0.20;;;29.10;37.10;;;27.89;22.70;100315.63;10436871;27;96843;-86
2022/07/12 15:18:49;;;;;;;0.68;0.10;;;29.20;37.10;;;28.02;22.86;100318.84;10434028;27;96626;-89
2022/07/12 15:23:52;;;;;;;1.75;0.22;;;29.10;37.20;;;27.99;22.17;100307.34;10427021;27;98366;-83
2022/07/12 15:29:02;;;;;;;227.15;11.70;;;29.00;37.00;;;27.83;22.44;100324.06;10433691;27;96697;-89
2022/07/12 15:34:05;;;;;;;4.90;1.73;;;28.80;37.50;;;27.44;22.61;100328.28;10425710;27;98842;-93
2022/07/12 15:39:09;;;;;;;15.90;1.08;;;28.40;37.00;;;26.97;22.92;100330.50;10438501;27;99235;-87
2022/07/12 15:44:12;;;;;;;0.43;0.20;;;28.00;37.10;;;26.75;23.11;100323.41;10415953;28;96738;-87
2022/07/12 15:49:15;;;;;;;0.30;0.20;;;27.70;37.50;;;26.76;23.50;100329.69;10414708;27;96628;-87
2022/07/12 15:54:18;;;;;;;0.98;0.50;;;27.70;38.10;;;26.80;24.50;100337.03;10435508;27;97373;-87
2022/07/12 15:59:21;;;;;;;2.08;0.30;;;27.70;39.10;;;26.67;25.71;100330.19;10417072;27;97800;-87
2022/07/12 16:04:24;;;;;;;1.17;0.30;;;27.60;40.00;;;26.74;26.17;100337.28;10416387;27;96963;-89
2022/07/12 16:09:28;;;;;;;3.72;0.40;;;27.60;40.40;;;26.84;25.75;100338.13;10439943;27;96759;-86
2022/07/12 16:14:31;;;;;;;3.08;0.40;;;27.80;40.50;;;26.80;25.82;100353.38;10415570;27;97729;-88
2022/07/12 16:19:34;;;;;;;698.67;49.33;;;27.80;40.30;;;26.36;25.78;100358.47;10409086;27;96440;-89
2022/07/12 16:24:37;;;;;;;4.32;0.50;;;27.50;40.40;;;26.05;26.25;100357.56;10443353;27;96790;-89
2022/07/12 16:29:40;;;;;;;2.63;0.20;;;27.10;40.50;;;25.82;26.48;100365.06;10418339;27;98715;-88
2022/07/12 16:34:43;;;;;;;0.52;0.20;;;26.90;40.70;;;25.45;27.07;100358.84;10421094;27;96712;-89
2022/07/12 16:39:46;;;;;;;0.73;0.30;;;26.60;41.20;;;25.00;27.96;100357.38;10425842;27;96549;-87
2022/07/12 16:44:50;;;;;;;0.88;0.20;;;26.10;41.80;;;24.91;28.88;100369.81;10431211;27;97424;-89
2022/07/12 16:49:52;;;;;;;1.65;0.32;;;25.90;42.80;;;25.00;29.37;100363.63;10405360;27;97325;-87
2022/07/12 16:54:56;;;;;;;2.13;0.40;;;25.90;43.50;;;25.11;29.67;100367.28;10427567;27;98439;-89
2022/07/12 16:59:59;;;;;;;1.23;0.30;;;26.10;43.80;;;25.29;29.56;100372.31;10413249;27;96783;-89
2022/07/12 17:05:05;;;;;;;1.60;0.50;;;26.30;43.60;;;25.38;29.48;100369.13;10424767;27;96699;-86
2022/07/12 17:10:09;;;;;;;0.47;0.38;;;26.40;43.60;;;25.36;29.69;100370.19;10438441;27;96783;-88
2022/07/12 17:15:13;;;;;;;16.90;2.45;;;26.40;43.80;;;25.11;29.76;100372.72;10425486;27;98796;-87
2022/07/12 17:20:16;;;;;;;0.65;0.20;;;26.20;43.90;;;24.72;30.39;100366.66;10434660;27;96787;-87
2022/07/12 17:25:20;;;;;;;0.57;0.20;;;25.80;44.90;;;24.42;30.88;100378.03;10417097;27;97050;-88
2022/07/12 17:30:23;;;;;;;1.08;0.22;;;25.50;44.90;;;24.13;31.48;100382.81;10427986;27;98186;-87
2022/07/12 17:35:26;;;;;;;0.85;0.22;;;25.20;45.30;;;23.84;32.05;100391.13;10436095;27;98693;-87
2022/07/12 17:40:29;;;;;;;0.75;0.30;;;25.00;45.80;;;23.62;32.52;100399.22;10421724;27;96635;-87
2022/07/12 17:45:32;;;;;;;1.55;0.32;;;24.70;46.10;;;23.32;33.02;100404.13;10457031;27;96586;-84
2022/07/12 17:50:36;;;;;;;1.77;0.50;;;24.40;46.70;;;22.93;33.72;100395.91;10398985;28;96600;-86
2022/07/12 17:55:39;;;;;;;0.70;0.30;;;24.10;47.30;;;22.63;34.62;100402.38;10399894;27;98707;-86
2022/07/12 18:00:43;;;;;;;1.55;0.30;;;23.80;48.00;;;22.46;34.61;100398.81;10452100;27;99021;-86
2022/07/12 18:05:47;;;;;;;7.40;0.52;;;23.60;48.40;;;22.32;34.89;100394.75;10446635;27;96671;-86
2022/07/12 18:10:51;;;;;;;4.22;0.32;;;23.40;48.50;;;22.15;35.48;100392.78;10452783;27;97788;-86
2022/07/12 18:15:54;;;;;;;2.28;0.35;;;23.30;48.70;;;21.98;35.85;100399.97;10431047;27;96574;-85
2022/07/12 18:20:57;;;;;;;4.47;0.30;;;23.20;49.20;;;21.83;36.43;100400.47;10426673;27;98393;-85
2022/07/12 18:26:02;;;;;;;1.27;0.40;;;23.00;49.50;;;21.62;36.53;100399.16;10420763;27;98970;-85
2022/07/12 18:31:05;;;;;;;3.58;0.50;;;22.80;50.00;;;21.48;37.24;100407.75;10453772;27;97399;-85
2022/07/12 18:36:08;;;;;;;1.50;0.40;;;22.70;50.50;;;21.24;37.29;100401.47;10453927;27;96624;-85
2022/07/12 18:41:14;;;;;;;1.25;0.50;;;22.40;50.70;;;21.10;37.67;100417.06;10452170;27;97040;-86
2022/07/12 18:46:18;;;;;;;67.35;3.75;;;22.30;50.90;;;20.98;38.03;100432.41;10425015;27;98246;-82
2022/07/12 18:51:21;;;;;;;58.10;3.35;;;22.20;51.40;;;20.82;38.68;100442.84;10427453;27;96700;-86
2022/07/12 18:56:24;;;;;;;6.43;0.75;;;22.00;51.70;;;20.66;39.11;100437.25;10416168;27;97694;-85
2022/07/12 19:01:27;;;;;;;1.08;0.38;;;21.80;52.10;;;20.54;39.78;100435.31;10425495;27;96681;-85
2022/07/12 19:06:30;;;;;;;128.48;6.97;;;21.70;52.60;;;20.45;40.04;100442.09;10431302;27;98623;-86
2022/07/12 19:11:33;;;;;;;125.63;6.63;;;21.60;52.90;;;20.35;39.94;100447.16;10459056;27;97463;-85
2022/07/12 19:16:36;;;;;;;121.95;11.38;;;21.50;53.20;;;20.25;40.41;100457.63;10453230;27;96794;-86
2022/07/12 19:21:40;;;;;;;0.93;0.40;;;21.40;53.50;;;20.17;40.57;100458.78;10417993;27;96846;-85
2022/07/12 19:26:43;;;;;;;4.88;0.95;;;21.30;53.50;;;20.10;40.66;100470.69;10419653;27;98422;-95
2022/07/12 19:31:46;;;;;;;3.40;0.43;;;21.30;53.60;;;20.03;40.71;100465.34;10446711;27;96510;-94
2022/07/12 19:36:49;;;;;;;1.77;0.40;;;21.20;53.60;;;19.95;40.89;100471.84;10449710;27;96640;-93
2022/07/12 19:41:52;;;;;;;4.75;0.40;;;21.20;53.90;;;19.81;41.14;100467.66;10460570;27;96516;-95
2022/07/12 19:46:55;;;;;;;2.72;0.60;;;21.00;54.10;;;19.72;41.40;100474.34;10427206;27;97183;-94
2022/07/12 19:51:58;;;;;;;2.38;0.40;;;20.90;54.40;;;19.63;41.76;100479.22;10428731;27;96690;-94
2022/07/12 19:57:01;;;;;;;1.50;0.50;;;20.80;54.50;;;19.59;41.62;100482.56;10396224;27;96487;-95
2022/07/12 20:02:05;;;;;;;0.50;0.40;;;20.80;54.50;;;19.53;41.78;100473.44;10439511;27;96542;-96
2022/07/12 20:07:08;;;;;;;1.85;0.60;;;20.80;54.60;;;19.43;41.90;100482.03;10445420;27;97836;-96
2022/07/12 20:12:12;;;;;;;2.17;0.60;;;20.70;54.70;;;19.40;42.13;100487.84;10449850;27;96462;-95
2022/07/12 20:17:14;;;;;;;0.57;0.40;;;20.60;54.90;;;19.34;41.97;100483.34;10430296;27;97967;-95
2022/07/12 20:22:17;;;;;;;1.50;0.70;;;20.60;54.80;;;19.31;42.00;100491.88;10433309;27;96671;-95
2022/07/12 20:27:21;;;;;;;1.73;0.80;;;20.60;54.80;;;19.26;42.22;100497.09;10445592;27;96499;-93
2022/07/12 20:32:26;;;;;;;4.13;0.40;;;20.50;54.80;;;19.18;42.24;100500.03;10449245;27;97041;-93
2022/07/12 20:37:29;;;;;;;1.08;0.30;;;20.50;55.00;;;19.12;42.53;100495.50;10432988;27;96750;-92
2022/07/12 20:42:32;;;;;;;1.05;0.40;;;20.40;55.10;;;19.07;42.56;100504.25;10446024;27;96433;-92
2022/07/12 20:47:35;;;;;;;1.08;0.40;;;20.30;55.30;;;18.99;42.72;100505.31;10426200;27;97044;-84
2022/07/12 20:52:38;;;;;;;1.23;0.30;;;20.20;55.40;;;18.96;42.47;100513.84;10456908;27;96696;-83
2022/07/12 20:57:41;;;;;;;2.08;0.40;;;20.20;55.30;;;18.95;42.54;100509.50;10427192;27;96466;-83
2022/07/12 21:02:44;;;;;;;0.40;0.30;;;20.10;55.20;;;18.96;42.33;100516.53;10416363;27;97645;-84